sensor_id;sensor_type;location;lat;lon;timestamp;pressure;altitude;pressure_sealevel;temperature;humidity
63033;BME280;49121;38.932;-9.018;2023-05-16T00:00:48;111992.50;;;-145.11;71.77
63033;BME280;49121;38.932;-9.018;2023-05-16T00:02:52;111992.50;;;-145.11;71.64
63033;BME280;49121;38.932;-9.018;2023-05-16T00:04:52;111992.50;;;-145.11;71.69
63033;BME280;49121;38.932;-9.018;2023-05-16T00:06:53;111992.50;;;-145.11;71.72
63033;BME280;49121;38.932;-9.018;2023-05-16T00:08:54;111992.50;;;-145.11;71.66
63033;BME280;49121;38.932;-9.018;2023-05-16T00:10:54;111992.50;;;-145.11;71.73
63033;BME280;49121;38.932;-9.018;2023-05-16T00:12:55;111992.50;;;-145.11;71.57
63033;BME280;49121;38.932;-9.018;2023-05-16T00:14:56;111992.50;;;-145.11;71.51
63033;BME280;49121;38.932;-9.018;2023-05-16T00:16:58;111992.50;;;-145.11;71.75
63033;BME280;49121;38.932;-9.018;2023-05-16T00:19:00;111992.50;;;-145.11;71.56
63033;BME280;49121;38.932;-9.018;2023-05-16T00:21:17;111992.50;;;-145.11;71.38
63033;BME280;49121;38.932;-9.018;2023-05-16T00:23:17;111992.50;;;-145.11;71.49
63033;BME280;49121;38.932;-9.018;2023-05-16T00:25:18;111992.50;;;-145.11;71.22
63033;BME280;49121;38.932;-9.018;2023-05-16T00:27:18;111992.50;;;-145.11;71.27
63033;BME280;49121;38.932;-9.018;2023-05-16T00:29:19;111992.50;;;-145.11;71.29
63033;BME280;49121;38.932;-9.018;2023-05-16T00:31:19;111992.50;;;-145.11;71.02
63033;BME280;49121;38.932;-9.018;2023-05-16T00:33:20;111992.50;;;-145.11;71.19
63033;BME280;49121;38.932;-9.018;2023-05-16T00:35:20;111992.50;;;-145.11;70.72
63033;BME280;49121;38.932;-9.018;2023-05-16T00:37:39;111992.50;;;-145.11;70.85
63033;BME280;49121;38.932;-9.018;2023-05-16T00:39:59;111992.50;;;-145.11;70.68
63033;BME280;49121;38.932;-9.018;2023-05-16T00:46:38;111992.50;;;-145.11;70.60
63033;BME280;49121;38.932;-9.018;2023-05-16T00:50:58;111992.50;;;-145.11;70.49
63033;BME280;49121;38.932;-9.018;2023-05-16T00:52:58;111992.50;;;-145.11;70.49
63033;BME280;49121;38.932;-9.018;2023-05-16T00:54:59;111992.50;;;-145.11;70.73
63033;BME280;49121;38.932;-9.018;2023-05-16T00:57:00;111992.50;;;-145.11;70.71
63033;BME280;49121;38.932;-9.018;2023-05-16T00:59:01;111992.50;;;-145.11;70.57
63033;BME280;49121;38.932;-9.018;2023-05-16T01:01:03;111992.50;;;-145.11;70.58
63033;BME280;49121;38.932;-9.018;2023-05-16T01:03:04;111992.50;;;-145.11;70.73
63033;BME280;49121;38.932;-9.018;2023-05-16T01:05:04;111992.50;;;-145.11;70.37
63033;BME280;49121;38.932;-9.018;2023-05-16T01:07:06;111992.50;;;-145.11;70.35
63033;BME280;49121;38.932;-9.018;2023-05-16T01:09:08;111992.50;;;-145.11;70.09
63033;BME280;49121;38.932;-9.018;2023-05-16T01:11:29;111992.50;;;-145.11;70.44
63033;BME280;49121;38.932;-9.018;2023-05-16T01:15:49;111992.50;;;-145.11;70.13
63033;BME280;49121;38.932;-9.018;2023-05-16T01:17:58;111992.50;;;-145.11;70.30
63033;BME280;49121;38.932;-9.018;2023-05-16T01:22:05;111992.50;;;-145.11;70.28
63033;BME280;49121;38.932;-9.018;2023-05-16T01:24:33;111992.50;;;-145.11;70.40
63033;BME280;49121;38.932;-9.018;2023-05-16T01:26:37;111992.50;;;-145.11;70.20
63033;BME280;49121;38.932;-9.018;2023-05-16T01:28:40;111992.50;;;-145.11;70.28
63033;BME280;49121;38.932;-9.018;2023-05-16T01:30:41;111992.50;;;-145.11;70.66
63033;BME280;49121;38.932;-9.018;2023-05-16T01:32:42;111992.50;;;-145.11;70.48
63033;BME280;49121;38.932;-9.018;2023-05-16T01:34:42;111992.50;;;-145.11;70.40
63033;BME280;49121;38.932;-9.018;2023-05-16T01:39:19;111992.50;;;-145.11;70.13
63033;BME280;49121;38.932;-9.018;2023-05-16T01:41:26;111992.50;;;-145.11;70.13
63033;BME280;49121;38.932;-9.018;2023-05-16T01:43:36;111992.50;;;-145.11;70.06
63033;BME280;49121;38.932;-9.018;2023-05-16T01:45:50;111992.50;;;-145.11;70.19
63033;BME280;49121;38.932;-9.018;2023-05-16T01:50:51;111992.50;;;-145.11;69.86
63033;BME280;49121;38.932;-9.018;2023-05-16T01:54:54;111992.50;;;-145.11;69.81
63033;BME280;49121;38.932;-9.018;2023-05-16T01:56:57;111992.50;;;-145.11;69.50
63033;BME280;49121;38.932;-9.018;2023-05-16T01:58:59;111992.50;;;-145.11;69.48
63033;BME280;49121;38.932;-9.018;2023-05-16T02:01:03;111992.50;;;-145.11;69.55
63033;BME280;49121;38.932;-9.018;2023-05-16T02:03:04;111992.50;;;-145.11;69.60
63033;BME280;49121;38.932;-9.018;2023-05-16T02:05:05;111992.50;;;-145.11;69.27
63033;BME280;49121;38.932;-9.018;2023-05-16T02:07:06;111992.50;;;-145.11;69.33
63033;BME280;49121;38.932;-9.018;2023-05-16T02:09:07;111992.50;;;-145.11;69.33
63033;BME280;49121;38.932;-9.018;2023-05-16T02:15:46;111992.50;;;-145.11;68.79
63033;BME280;49121;38.932;-9.018;2023-05-16T02:17:47;111992.50;;;-145.11;68.42
63033;BME280;49121;38.932;-9.018;2023-05-16T02:19:49;111992.50;;;-145.11;68.49
63033;BME280;49121;38.932;-9.018;2023-05-16T02:22:08;111992.50;;;-145.11;68.44
63033;BME280;49121;38.932;-9.018;2023-05-16T02:24:08;111992.50;;;-145.11;68.47
63033;BME280;49121;38.932;-9.018;2023-05-16T02:26:09;111992.50;;;-145.11;68.57
63033;BME280;49121;38.932;-9.018;2023-05-16T02:30:29;111992.50;;;-145.11;68.63
63033;BME280;49121;38.932;-9.018;2023-05-16T02:34:48;111992.50;;;-145.11;68.53
63033;BME280;49121;38.932;-9.018;2023-05-16T02:36:49;111992.50;;;-145.11;68.47
63033;BME280;49121;38.932;-9.018;2023-05-16T02:38:49;111992.50;;;-145.11;68.50
63033;BME280;49121;38.932;-9.018;2023-05-16T02:40:50;111992.50;;;-145.11;68.71
63033;BME280;49121;38.932;-9.018;2023-05-16T02:42:50;111992.50;;;-145.11;68.88
63033;BME280;49121;38.932;-9.018;2023-05-16T02:44:51;111992.50;;;-145.11;68.96
63033;BME280;49121;38.932;-9.018;2023-05-16T02:46:51;111992.50;;;-145.11;68.88
63033;BME280;49121;38.932;-9.018;2023-05-16T02:48:52;111992.50;;;-145.11;68.77
63033;BME280;49121;38.932;-9.018;2023-05-16T02:50:53;111992.50;;;-145.11;68.96
63033;BME280;49121;38.932;-9.018;2023-05-16T02:57:32;111992.50;;;-145.11;69.57
63033;BME280;49121;38.932;-9.018;2023-05-16T02:59:32;111992.50;;;-145.11;69.92
63033;BME280;49121;38.932;-9.018;2023-05-16T03:01:51;111992.50;;;-145.11;70.21
63033;BME280;49121;38.932;-9.018;2023-05-16T03:03:51;111992.50;;;-145.11;70.35
63033;BME280;49121;38.932;-9.018;2023-05-16T03:05:52;111992.50;;;-145.11;70.79
63033;BME280;49121;38.932;-9.018;2023-05-16T03:07:52;111992.50;;;-145.11;71.04
63033;BME280;49121;38.932;-9.018;2023-05-16T03:09:53;111992.50;;;-145.11;71.24
63033;BME280;49121;38.932;-9.018;2023-05-16T03:11:53;111992.50;;;-145.11;71.41
63033;BME280;49121;38.932;-9.018;2023-05-16T03:13:54;111992.50;;;-145.11;71.70
63033;BME280;49121;38.932;-9.018;2023-05-16T03:18:14;111992.50;;;-145.11;72.29
63033;BME280;49121;38.932;-9.018;2023-05-16T03:20:17;111992.50;;;-145.11;72.17
63033;BME280;49121;38.932;-9.018;2023-05-16T03:22:18;111992.50;;;-145.11;72.52
63033;BME280;49121;38.932;-9.018;2023-05-16T03:24:18;111992.50;;;-145.11;73.00
63033;BME280;49121;38.932;-9.018;2023-05-16T03:26:21;111992.50;;;-145.11;73.30
63033;BME280;49121;38.932;-9.018;2023-05-16T03:28:25;111992.50;;;-145.11;73.48
63033;BME280;49121;38.932;-9.018;2023-05-16T03:40:04;111992.50;;;-145.11;73.66
63033;BME280;49121;38.932;-9.018;2023-05-16T03:42:05;111992.50;;;-145.11;73.49
63033;BME280;49121;38.932;-9.018;2023-05-16T03:44:06;111992.50;;;-145.11;72.82
63033;BME280;49121;38.932;-9.018;2023-05-16T03:46:07;111992.50;;;-145.11;72.53
63033;BME280;49121;38.932;-9.018;2023-05-16T03:48:07;111992.50;;;-145.11;72.56
63033;BME280;49121;38.932;-9.018;2023-05-16T03:50:08;111992.50;;;-145.11;72.83
63033;BME280;49121;38.932;-9.018;2023-05-16T03:59:25;111992.50;;;-145.11;72.75
63033;BME280;49121;38.932;-9.018;2023-05-16T04:01:46;111992.50;;;-145.11;73.20
63033;BME280;49121;38.932;-9.018;2023-05-16T04:03:47;111992.50;;;-145.11;73.08
63033;BME280;49121;38.932;-9.018;2023-05-16T04:05:47;111992.50;;;-145.11;73.28
63033;BME280;49121;38.932;-9.018;2023-05-16T04:07:48;111992.50;;;-145.11;73.65
63033;BME280;49121;38.932;-9.018;2023-05-16T04:09:48;111992.50;;;-145.11;73.71
63033;BME280;49121;38.932;-9.018;2023-05-16T04:11:49;111992.50;;;-145.11;73.58
63033;BME280;49121;38.932;-9.018;2023-05-16T04:13:49;111992.50;;;-145.11;73.59
63033;BME280;49121;38.932;-9.018;2023-05-16T04:15:50;111992.50;;;-145.11;73.51
63033;BME280;49121;38.932;-9.018;2023-05-16T04:20:10;111992.50;;;-145.11;73.27
63033;BME280;49121;38.932;-9.018;2023-05-16T04:22:10;111992.50;;;-145.11;73.67
63033;BME280;49121;38.932;-9.018;2023-05-16T04:24:11;111992.50;;;-145.11;73.88
63033;BME280;49121;38.932;-9.018;2023-05-16T04:26:11;111992.50;;;-145.11;73.65
63033;BME280;49121;38.932;-9.018;2023-05-16T04:28:13;111992.50;;;-145.11;73.34
63033;BME280;49121;38.932;-9.018;2023-05-16T04:30:14;111992.50;;;-145.11;73.40
63033;BME280;49121;38.932;-9.018;2023-05-16T04:32:14;111992.50;;;-145.11;73.64
63033;BME280;49121;38.932;-9.018;2023-05-16T04:39:14;111992.50;;;-145.11;73.21
63033;BME280;49121;38.932;-9.018;2023-05-16T04:41:15;111992.50;;;-145.11;73.36
63033;BME280;49121;38.932;-9.018;2023-05-16T04:43:16;111992.50;;;-145.11;73.01
63033;BME280;49121;38.932;-9.018;2023-05-16T04:45:16;111992.50;;;-145.11;72.65
63033;BME280;49121;38.932;-9.018;2023-05-16T04:47:17;111992.50;;;-145.11;72.44
63033;BME280;49121;38.932;-9.018;2023-05-16T04:49:21;111992.50;;;-145.11;72.82
63033;BME280;49121;38.932;-9.018;2023-05-16T04:51:21;111992.50;;;-145.11;72.82
63033;BME280;49121;38.932;-9.018;2023-05-16T04:53:22;111992.50;;;-145.11;72.75
63033;BME280;49121;38.932;-9.018;2023-05-16T04:55:22;111992.50;;;-145.11;72.81
63033;BME280;49121;38.932;-9.018;2023-05-16T04:57:23;111992.50;;;-145.11;72.82
63033;BME280;49121;38.932;-9.018;2023-05-16T05:02:01;111992.50;;;-145.11;72.62
63033;BME280;49121;38.932;-9.018;2023-05-16T05:04:15;111992.50;;;-145.11;72.63
63033;BME280;49121;38.932;-9.018;2023-05-16T05:06:16;111992.50;;;-145.11;72.88
63033;BME280;49121;38.932;-9.018;2023-05-16T05:08:17;111992.50;;;-145.11;73.01
63033;BME280;49121;38.932;-9.018;2023-05-16T05:10:18;111992.50;;;-145.11;72.93
63033;BME280;49121;38.932;-9.018;2023-05-16T05:12:18;111992.50;;;-145.11;73.11
63033;BME280;49121;38.932;-9.018;2023-05-16T05:14:19;111992.50;;;-145.11;72.93
63033;BME280;49121;38.932;-9.018;2023-05-16T05:16:19;111992.50;;;-145.11;72.66
63033;BME280;49121;38.932;-9.018;2023-05-16T05:18:20;111992.50;;;-145.11;72.35
63033;BME280;49121;38.932;-9.018;2023-05-16T05:22:39;111992.50;;;-145.11;71.94
63033;BME280;49121;38.932;-9.018;2023-05-16T05:24:58;111992.50;;;-145.11;71.84
63033;BME280;49121;38.932;-9.018;2023-05-16T05:26:59;111992.50;;;-145.11;71.87
63033;BME280;49121;38.932;-9.018;2023-05-16T05:29:00;111992.50;;;-145.11;71.74
63033;BME280;49121;38.932;-9.018;2023-05-16T05:31:00;111992.50;;;-145.11;71.64
63033;BME280;49121;38.932;-9.018;2023-05-16T05:33:00;111992.50;;;-145.11;71.49
63033;BME280;49121;38.932;-9.018;2023-05-16T05:35:01;111992.50;;;-145.11;71.35
63033;BME280;49121;38.932;-9.018;2023-05-16T05:37:02;111992.50;;;-145.11;71.22
63033;BME280;49121;38.932;-9.018;2023-05-16T05:39:03;111992.50;;;-145.11;71.70
63033;BME280;49121;38.932;-9.018;2023-05-16T05:41:04;111992.50;;;-145.11;71.40
63033;BME280;49121;38.932;-9.018;2023-05-16T05:50:38;111992.50;;;-145.11;71.63
63033;BME280;49121;38.932;-9.018;2023-05-16T05:52:39;111992.50;;;-145.11;70.82
63033;BME280;49121;38.932;-9.018;2023-05-16T05:54:40;111992.50;;;-145.11;69.88
63033;BME280;49121;38.932;-9.018;2023-05-16T05:56:40;111992.50;;;-145.11;69.72
63033;BME280;49121;38.932;-9.018;2023-05-16T05:58:41;111992.50;;;-145.11;69.38
63033;BME280;49121;38.932;-9.018;2023-05-16T06:07:58;111992.50;;;-145.11;67.66
63033;BME280;49121;38.932;-9.018;2023-05-16T06:09:59;111992.50;;;-145.11;67.33
63033;BME280;49121;38.932;-9.018;2023-05-16T06:12:03;111992.50;;;-145.11;67.27
63033;BME280;49121;38.932;-9.018;2023-05-16T06:14:04;111992.50;;;-145.11;67.14
63033;BME280;49121;38.932;-9.018;2023-05-16T06:25:40;111992.50;;;-145.11;65.87
63033;BME280;49121;38.932;-9.018;2023-05-16T06:27:40;111992.50;;;-145.11;64.93
63033;BME280;49121;38.932;-9.018;2023-05-16T06:29:41;111992.50;;;-145.11;61.27
63033;BME280;49121;38.932;-9.018;2023-05-16T06:31:41;111992.50;;;-145.11;59.36
63033;BME280;49121;38.932;-9.018;2023-05-16T06:33:42;111992.50;;;-145.11;59.76
63033;BME280;49121;38.932;-9.018;2023-05-16T06:36:01;111992.50;;;-145.11;59.70
63033;BME280;49121;38.932;-9.018;2023-05-16T06:38:20;111992.50;;;-145.11;59.05
63033;BME280;49121;38.932;-9.018;2023-05-16T06:40:20;111992.50;;;-145.11;58.35
63033;BME280;49121;38.932;-9.018;2023-05-16T06:44:58;111992.50;;;-145.11;57.68
63033;BME280;49121;38.932;-9.018;2023-05-16T06:47:17;111992.50;;;-145.11;58.12
63033;BME280;49121;38.932;-9.018;2023-05-16T06:49:18;111992.50;;;-145.11;57.44
63033;BME280;49121;38.932;-9.018;2023-05-16T06:51:18;111992.50;;;-145.11;56.34
63033;BME280;49121;38.932;-9.018;2023-05-16T06:53:19;111992.50;;;-145.11;55.11
63033;BME280;49121;38.932;-9.018;2023-05-16T06:55:19;111992.50;;;-145.11;53.65
63033;BME280;49121;38.932;-9.018;2023-05-16T06:57:20;111992.50;;;-145.11;53.73
63033;BME280;49121;38.932;-9.018;2023-05-16T06:59:21;111992.50;;;-145.11;52.94
63033;BME280;49121;38.932;-9.018;2023-05-16T07:03:44;111992.50;;;-145.11;50.21
63033;BME280;49121;38.932;-9.018;2023-05-16T07:05:44;111992.50;;;-145.11;48.86
63033;BME280;49121;38.932;-9.018;2023-05-16T07:07:45;111992.50;;;-145.11;48.58
63033;BME280;49121;38.932;-9.018;2023-05-16T07:09:45;111992.50;;;-145.11;46.94
63033;BME280;49121;38.932;-9.018;2023-05-16T07:11:47;111992.50;;;-145.11;45.50
63033;BME280;49121;38.932;-9.018;2023-05-16T07:13:48;111992.50;;;-145.11;45.39
63033;BME280;49121;38.932;-9.018;2023-05-16T07:15:49;111992.50;;;-145.11;43.64
63033;BME280;49121;38.932;-9.018;2023-05-16T07:17:49;111992.50;;;-145.11;41.88
63033;BME280;49121;38.932;-9.018;2023-05-16T07:19:52;111992.50;;;-145.11;41.99
63033;BME280;49121;38.932;-9.018;2023-05-16T07:24:18;111992.50;;;-145.11;39.05
63033;BME280;49121;38.932;-9.018;2023-05-16T07:26:20;111992.50;;;-145.11;38.43
63033;BME280;49121;38.932;-9.018;2023-05-16T07:28:22;111992.50;;;-145.11;38.26
63033;BME280;49121;38.932;-9.018;2023-05-16T07:30:23;111992.50;;;-145.11;38.40
63033;BME280;49121;38.932;-9.018;2023-05-16T07:32:23;111992.50;;;-145.11;38.36
63033;BME280;49121;38.932;-9.018;2023-05-16T07:34:24;111992.50;;;-145.11;37.46
63033;BME280;49121;38.932;-9.018;2023-05-16T07:36:25;111992.50;;;-145.11;36.90
63033;BME280;49121;38.932;-9.018;2023-05-16T07:38:26;111992.50;;;-145.11;37.64
63033;BME280;49121;38.932;-9.018;2023-05-16T07:40:26;111992.50;;;-145.11;36.57
63033;BME280;49121;38.932;-9.018;2023-05-16T07:42:30;111992.50;;;-145.11;36.59
63033;BME280;49121;38.932;-9.018;2023-05-16T07:44:30;111992.50;;;-145.11;36.18
63033;BME280;49121;38.932;-9.018;2023-05-16T07:46:31;111992.50;;;-145.11;35.88
63033;BME280;49121;38.932;-9.018;2023-05-16T07:48:32;111992.50;;;-145.11;35.25
63033;BME280;49121;38.932;-9.018;2023-05-16T07:50:32;111992.50;;;-145.11;33.40
63033;BME280;49121;38.932;-9.018;2023-05-16T07:52:33;111992.50;;;-145.11;32.97
63033;BME280;49121;38.932;-9.018;2023-05-16T07:54:35;111992.50;;;-145.11;32.10
63033;BME280;49121;38.932;-9.018;2023-05-16T07:56:37;111992.50;;;-145.11;31.57
63033;BME280;49121;38.932;-9.018;2023-05-16T07:58:37;111992.50;;;-145.11;30.48
63033;BME280;49121;38.932;-9.018;2023-05-16T08:00:41;111992.50;;;-145.11;28.65
63033;BME280;49121;38.932;-9.018;2023-05-16T08:02:44;111992.50;;;-145.11;30.24
63033;BME280;49121;38.932;-9.018;2023-05-16T08:04:45;111992.50;;;-145.11;29.80
63033;BME280;49121;38.932;-9.018;2023-05-16T08:06:46;111992.50;;;-145.11;29.79
63033;BME280;49121;38.932;-9.018;2023-05-16T08:08:46;111992.50;;;-145.11;30.02
63033;BME280;49121;38.932;-9.018;2023-05-16T08:10:48;111992.50;;;-145.11;29.72
63033;BME280;49121;38.932;-9.018;2023-05-16T08:12:52;111992.50;;;-145.11;28.96
63033;BME280;49121;38.932;-9.018;2023-05-16T08:14:55;111992.50;;;-145.11;29.07
63033;BME280;49121;38.932;-9.018;2023-05-16T08:16:57;111992.50;;;-145.11;29.44
63033;BME280;49121;38.932;-9.018;2023-05-16T08:18:58;111992.50;;;-145.11;29.90
63033;BME280;49121;38.932;-9.018;2023-05-16T08:20:59;111992.50;;;-145.11;28.46
63033;BME280;49121;38.932;-9.018;2023-05-16T08:23:04;111992.50;;;-145.11;28.78
63033;BME280;49121;38.932;-9.018;2023-05-16T08:25:07;111992.50;;;-145.11;27.86
63033;BME280;49121;38.932;-9.018;2023-05-16T08:27:08;111992.50;;;-145.11;27.61
63033;BME280;49121;38.932;-9.018;2023-05-16T08:29:09;111992.50;;;-145.11;27.93
63033;BME280;49121;38.932;-9.018;2023-05-16T08:31:13;111992.50;;;-145.11;27.82
63033;BME280;49121;38.932;-9.018;2023-05-16T08:35:36;111992.50;;;-145.11;26.31
63033;BME280;49121;38.932;-9.018;2023-05-16T08:40:02;111992.50;;;-145.11;25.46
63033;BME280;49121;38.932;-9.018;2023-05-16T08:42:07;111992.50;;;-145.11;26.04
63033;BME280;49121;38.932;-9.018;2023-05-16T08:44:08;111992.50;;;-145.11;25.73
63033;BME280;49121;38.932;-9.018;2023-05-16T08:46:12;111992.50;;;-145.11;26.08
63033;BME280;49121;38.932;-9.018;2023-05-16T08:48:14;111992.50;;;-145.11;26.67
63033;BME280;49121;38.932;-9.018;2023-05-16T08:50:36;111992.50;;;-145.11;27.37
63033;BME280;49121;38.932;-9.018;2023-05-16T08:52:37;111992.50;;;-145.11;27.34
63033;BME280;49121;38.932;-9.018;2023-05-16T08:54:54;111992.50;;;-145.11;27.34
63033;BME280;49121;38.932;-9.018;2023-05-16T08:57:04;111992.50;;;-145.11;25.98
63033;BME280;49121;38.932;-9.018;2023-05-16T08:59:33;111992.50;;;-145.11;26.12
63033;BME280;49121;38.932;-9.018;2023-05-16T09:02:15;111992.50;;;-145.11;26.57
63033;BME280;49121;38.932;-9.018;2023-05-16T09:04:20;111992.50;;;-145.11;26.38
63033;BME280;49121;38.932;-9.018;2023-05-16T09:06:21;111992.50;;;-145.11;26.16
63033;BME280;49121;38.932;-9.018;2023-05-16T09:08:22;111992.50;;;-145.11;26.03
63033;BME280;49121;38.932;-9.018;2023-05-16T09:10:25;111992.50;;;-145.11;26.43
63033;BME280;49121;38.932;-9.018;2023-05-16T09:12:33;111992.50;;;-145.11;26.93
63033;BME280;49121;38.932;-9.018;2023-05-16T09:14:34;111992.50;;;-145.11;26.71
63033;BME280;49121;38.932;-9.018;2023-05-16T09:16:35;111992.50;;;-145.11;26.64
63033;BME280;49121;38.932;-9.018;2023-05-16T09:18:36;111992.50;;;-145.11;26.41
63033;BME280;49121;38.932;-9.018;2023-05-16T09:20:37;111992.50;;;-145.11;26.89
63033;BME280;49121;38.932;-9.018;2023-05-16T09:22:51;111992.50;;;-145.11;26.34
63033;BME280;49121;38.932;-9.018;2023-05-16T09:27:17;111992.50;;;-145.11;26.27
63033;BME280;49121;38.932;-9.018;2023-05-16T09:29:18;111992.50;;;-145.11;26.16
63033;BME280;49121;38.932;-9.018;2023-05-16T09:31:25;111992.50;;;-145.11;26.44
63033;BME280;49121;38.932;-9.018;2023-05-16T09:33:31;111992.50;;;-145.11;25.83
63033;BME280;49121;38.932;-9.018;2023-05-16T09:35:33;111992.50;;;-145.11;26.21
63033;BME280;49121;38.932;-9.018;2023-05-16T09:37:37;111992.50;;;-145.11;26.44
63033;BME280;49121;38.932;-9.018;2023-05-16T09:39:47;111992.50;;;-145.11;26.51
63033;BME280;49121;38.932;-9.018;2023-05-16T09:41:50;111992.50;;;-145.11;27.18
63033;BME280;49121;38.932;-9.018;2023-05-16T09:43:51;111992.50;;;-145.11;26.91
63033;BME280;49121;38.932;-9.018;2023-05-16T09:45:52;111992.50;;;-145.11;26.74
63033;BME280;49121;38.932;-9.018;2023-05-16T09:47:53;111992.50;;;-145.11;26.91
63033;BME280;49121;38.932;-9.018;2023-05-16T09:49:53;111992.50;;;-145.11;26.63
63033;BME280;49121;38.932;-9.018;2023-05-16T09:54:46;111992.50;;;-145.11;26.60
63033;BME280;49121;38.932;-9.018;2023-05-16T09:56:50;111992.50;;;-145.11;27.89
63033;BME280;49121;38.932;-9.018;2023-05-16T09:58:55;111992.50;;;-145.11;27.45
63033;BME280;49121;38.932;-9.018;2023-05-16T10:00:56;111992.50;;;-145.11;27.91
63033;BME280;49121;38.932;-9.018;2023-05-16T10:05:37;111992.50;;;-145.11;27.48
63033;BME280;49121;38.932;-9.018;2023-05-16T10:07:39;111992.50;;;-145.11;26.37
63033;BME280;49121;38.932;-9.018;2023-05-16T10:12:22;111992.50;;;-145.11;26.95
63033;BME280;49121;38.932;-9.018;2023-05-16T10:14:27;111992.50;;;-145.11;27.32
63033;BME280;49121;38.932;-9.018;2023-05-16T10:16:29;111992.50;;;-145.11;27.10
63033;BME280;49121;38.932;-9.018;2023-05-16T10:18:31;111992.50;;;-145.11;27.45
63033;BME280;49121;38.932;-9.018;2023-05-16T10:20:33;111992.50;;;-145.11;27.49
63033;BME280;49121;38.932;-9.018;2023-05-16T10:22:34;111992.50;;;-145.11;26.35
63033;BME280;49121;38.932;-9.018;2023-05-16T10:26:36;111992.50;;;-145.11;26.56
63033;BME280;49121;38.932;-9.018;2023-05-16T10:28:53;111992.50;;;-145.11;26.86
63033;BME280;49121;38.932;-9.018;2023-05-16T10:30:56;111992.50;;;-145.11;27.30
63033;BME280;49121;38.932;-9.018;2023-05-16T10:32:57;111992.50;;;-145.11;28.10
63033;BME280;49121;38.932;-9.018;2023-05-16T10:35:07;111992.50;;;-145.11;29.01
63033;BME280;49121;38.932;-9.018;2023-05-16T10:37:49;111992.50;;;-145.11;29.40
63033;BME280;49121;38.932;-9.018;2023-05-16T10:40:04;111992.50;;;-145.11;31.13
63033;BME280;49121;38.932;-9.018;2023-05-16T10:42:18;111992.50;;;-145.11;30.92
63033;BME280;49121;38.932;-9.018;2023-05-16T10:44:25;111992.50;;;-145.11;30.18
63033;BME280;49121;38.932;-9.018;2023-05-16T10:46:29;111992.50;;;-145.11;30.64
63033;BME280;49121;38.932;-9.018;2023-05-16T10:48:37;111992.50;;;-145.11;30.26
63033;BME280;49121;38.932;-9.018;2023-05-16T10:50:39;111992.50;;;-145.11;29.10
63033;BME280;49121;38.932;-9.018;2023-05-16T10:52:42;111992.50;;;-145.11;29.45
63033;BME280;49121;38.932;-9.018;2023-05-16T10:54:43;111992.50;;;-145.11;29.48
63033;BME280;49121;38.932;-9.018;2023-05-16T10:56:44;111992.50;;;-145.11;29.56
63033;BME280;49121;38.932;-9.018;2023-05-16T10:58:56;111992.50;;;-145.11;29.01
63033;BME280;49121;38.932;-9.018;2023-05-16T11:01:30;111992.50;;;-145.11;29.51
63033;BME280;49121;38.932;-9.018;2023-05-16T11:03:31;111992.50;;;-145.11;29.59
63033;BME280;49121;38.932;-9.018;2023-05-16T11:05:51;111992.50;;;-145.11;29.36
63033;BME280;49121;38.932;-9.018;2023-05-16T11:08:11;111992.50;;;-145.11;29.10
63033;BME280;49121;38.932;-9.018;2023-05-16T11:10:15;111992.50;;;-145.11;29.39
63033;BME280;49121;38.932;-9.018;2023-05-16T11:12:16;111992.50;;;-145.11;29.52
63033;BME280;49121;38.932;-9.018;2023-05-16T11:16:25;111992.50;;;-145.11;28.49
63033;BME280;49121;38.932;-9.018;2023-05-16T11:18:26;111992.50;;;-145.11;28.28
63033;BME280;49121;38.932;-9.018;2023-05-16T11:20:30;111992.50;;;-145.11;28.24
63033;BME280;49121;38.932;-9.018;2023-05-16T11:22:32;111992.50;;;-145.11;28.02
63033;BME280;49121;38.932;-9.018;2023-05-16T11:24:34;111992.50;;;-145.11;27.98
63033;BME280;49121;38.932;-9.018;2023-05-16T11:26:35;111992.50;;;-145.11;28.00
63033;BME280;49121;38.932;-9.018;2023-05-16T11:28:37;111992.50;;;-145.11;27.82
63033;BME280;49121;38.932;-9.018;2023-05-16T11:30:58;111992.50;;;-145.11;27.75
63033;BME280;49121;38.932;-9.018;2023-05-16T11:33:00;111992.50;;;-145.11;27.73
63033;BME280;49121;38.932;-9.018;2023-05-16T11:35:00;111992.50;;;-145.11;27.71
63033;BME280;49121;38.932;-9.018;2023-05-16T11:37:04;111992.50;;;-145.11;28.00
63033;BME280;49121;38.932;-9.018;2023-05-16T11:39:06;111992.50;;;-145.11;28.05
63033;BME280;49121;38.932;-9.018;2023-05-16T11:41:08;111992.50;;;-145.11;27.91
63033;BME280;49121;38.932;-9.018;2023-05-16T11:43:10;111992.50;;;-145.11;28.11
63033;BME280;49121;38.932;-9.018;2023-05-16T11:47:12;111992.50;;;-145.11;28.48
63033;BME280;49121;38.932;-9.018;2023-05-16T11:49:12;111992.50;;;-145.11;28.05
63033;BME280;49121;38.932;-9.018;2023-05-16T11:51:32;111992.50;;;-145.11;27.80
63033;BME280;49121;38.932;-9.018;2023-05-16T11:53:35;111992.50;;;-145.11;27.83
63033;BME280;49121;38.932;-9.018;2023-05-16T11:55:37;111992.50;;;-145.11;27.44
63033;BME280;49121;38.932;-9.018;2023-05-16T11:57:40;111992.50;;;-145.11;27.98
63033;BME280;49121;38.932;-9.018;2023-05-16T11:59:44;111992.50;;;-145.11;28.11
63033;BME280;49121;38.932;-9.018;2023-05-16T12:01:45;111992.50;;;-145.11;27.88
63033;BME280;49121;38.932;-9.018;2023-05-16T12:06:09;111992.50;;;-145.11;27.25
63033;BME280;49121;38.932;-9.018;2023-05-16T12:08:12;111992.50;;;-145.11;27.43
63033;BME280;49121;38.932;-9.018;2023-05-16T12:10:13;111992.50;;;-145.11;28.04
63033;BME280;49121;38.932;-9.018;2023-05-16T12:12:15;111992.50;;;-145.11;27.80
63033;BME280;49121;38.932;-9.018;2023-05-16T12:14:17;111992.50;;;-145.11;27.79
63033;BME280;49121;38.932;-9.018;2023-05-16T12:16:25;111992.50;;;-145.11;27.76
63033;BME280;49121;38.932;-9.018;2023-05-16T12:21:15;111992.50;;;-145.11;26.79
63033;BME280;49121;38.932;-9.018;2023-05-16T12:23:20;111992.50;;;-145.11;27.19